createdAt,value
2017-12-08T00:00:16.448Z,99473.98
2017-12-08T00:01:22.382Z,99478.19
2017-12-08T00:02:28.289Z,99477.73
2017-12-08T00:03:34.170Z,99480.23
2017-12-08T00:04:40.277Z,99473.45
2017-12-08T00:05:46.394Z,99475.00
2017-12-08T00:06:52.477Z,99473.43
2017-12-08T00:08:00.866Z,99470.27
2017-12-08T00:09:06.943Z,99471.86
2017-12-08T00:10:13.034Z,99474.28
2017-12-08T00:11:18.916Z,99462.76
2017-12-08T00:12:24.998Z,99466.03
2017-12-08T00:13:30.821Z,99455.16
2017-12-08T00:14:36.920Z,99458.50
2017-12-08T00:15:43.056Z,99461.11
2017-12-08T00:16:49.187Z,99458.98
2017-12-08T00:17:55.342Z,99457.17
2017-12-08T00:19:01.495Z,99455.62
2017-12-08T00:20:15.664Z,99462.57
2017-12-08T00:21:26.701Z,99450.55
2017-12-08T00:22:32.824Z,99452.46
2017-12-08T00:23:39.024Z,99441.08
2017-12-08T00:24:45.113Z,99443.47
2017-12-08T00:25:52.861Z,99444.78
2017-12-08T00:26:58.755Z,99446.19
2017-12-08T00:28:04.878Z,99440.17
2017-12-08T00:29:11.022Z,99437.78
2017-12-08T00:30:17.092Z,99433.02
2017-12-08T00:31:23.202Z,99428.87
2017-12-08T00:32:29.596Z,99429.67
2017-12-08T00:33:36.206Z,99435.17
2017-12-08T00:34:42.285Z,99431.31
2017-12-08T00:35:50.333Z,99422.73
2017-12-08T00:36:56.458Z,99431.42
2017-12-08T00:38:02.590Z,99431.74
2017-12-08T00:39:08.735Z,99428.02
2017-12-08T00:40:14.832Z,99432.30
2017-12-08T00:41:20.917Z,99433.66
2017-12-08T00:42:27.004Z,99433.61
2017-12-08T00:43:33.139Z,99428.92
2017-12-08T00:44:39.234Z,99426.05
2017-12-08T00:45:45.362Z,99431.88
2017-12-08T00:46:51.456Z,99426.84
2017-12-08T00:47:57.595Z,99429.56
2017-12-08T00:49:04.611Z,99430.52
2017-12-08T00:50:10.692Z,99429.16
2017-12-08T00:51:16.861Z,99436.16
2017-12-08T00:52:22.959Z,99426.48
2017-12-08T00:53:33.617Z,99425.36
2017-12-08T00:54:39.765Z,99427.86
2017-12-08T00:55:45.844Z,99422.41
2017-12-08T00:56:51.945Z,99415.94
2017-12-08T00:57:58.066Z,99425.68
2017-12-08T00:59:04.238Z,99424.45
2017-12-08T01:00:10.348Z,99425.04
2017-12-08T01:01:16.422Z,99426.12
2017-12-08T01:02:22.504Z,99432.27
2017-12-08T01:03:28.644Z,99424.11
2017-12-08T01:04:34.760Z,99422.06
2017-12-08T01:05:40.845Z,99423.06
2017-12-08T01:06:46.732Z,99425.66
2017-12-08T01:07:52.822Z,99428.92
2017-12-08T01:08:58.960Z,99430.04
2017-12-08T01:10:05.037Z,99433.02
2017-12-08T01:11:11.129Z,99438.77
2017-12-08T01:12:17.231Z,99437.56
2017-12-08T01:13:23.341Z,99435.48
2017-12-08T01:14:29.568Z,99446.80
2017-12-08T01:15:35.683Z,99448.95
2017-12-08T01:16:41.801Z,99450.58
2017-12-08T01:17:47.984Z,99453.77
2017-12-08T01:18:59.009Z,99452.48
2017-12-08T01:20:05.113Z,99462.55
2017-12-08T01:21:11.253Z,99458.19
2017-12-08T01:22:17.356Z,99459.63
2017-12-08T01:23:23.534Z,99457.60
2017-12-08T01:24:29.616Z,99458.39
2017-12-08T01:25:35.729Z,99455.78
2017-12-08T01:26:41.861Z,99452.86
2017-12-08T01:27:47.968Z,99452.33
2017-12-08T01:28:54.140Z,99449.00
2017-12-08T01:30:00.273Z,99448.58
2017-12-08T01:31:06.357Z,99455.92
2017-12-08T01:32:12.505Z,99452.12
2017-12-08T01:33:18.569Z,99462.14
2017-12-08T01:34:24.481Z,99459.72
2017-12-08T01:35:30.345Z,99460.73
2017-12-08T01:36:36.413Z,99443.98
2017-12-08T01:37:42.363Z,99447.97
2017-12-08T01:38:48.246Z,99448.81
2017-12-08T01:39:54.152Z,99456.32
2017-12-08T01:41:00.335Z,99452.88
2017-12-08T01:42:06.466Z,99443.92
2017-12-08T01:43:12.666Z,99446.74
2017-12-08T01:44:18.439Z,99443.98
2017-12-08T01:45:24.608Z,99448.84
2017-12-08T01:46:30.434Z,99452.91
2017-12-08T01:47:36.175Z,99446.27
2017-12-08T01:48:42.315Z,99438.39
2017-12-08T01:49:48.407Z,99436.16
2017-12-08T01:50:54.047Z,99443.42
2017-12-08T01:51:59.990Z,99433.61
2017-12-08T01:53:06.138Z,99436.45
2017-12-08T01:54:12.332Z,99431.59
2017-12-08T01:55:18.418Z,99438.70
2017-12-08T01:56:24.504Z,99444.51
2017-12-08T01:57:30.587Z,99441.02
2017-12-08T01:58:36.764Z,99446.34
2017-12-08T01:59:42.265Z,99445.34
2017-12-08T02:00:48.481Z,99445.16
2017-12-08T02:01:53.341Z,99445.39
2017-12-08T02:02:59.429Z,99445.39
2017-12-08T02:04:05.390Z,99445.73
2017-12-08T02:05:11.560Z,99445.66
2017-12-08T02:06:17.498Z,99445.23
2017-12-08T02:07:23.627Z,99444.30
2017-12-08T02:08:29.732Z,99440.30
2017-12-08T02:09:39.150Z,99440.89
2017-12-08T02:10:44.353Z,99439.86
2017-12-08T02:11:50.255Z,99438.58
2017-12-08T02:12:56.343Z,99438.05
2017-12-08T02:14:02.435Z,99435.36
2017-12-08T02:15:08.587Z,99436.80
2017-12-08T02:16:14.482Z,99426.34
2017-12-08T02:17:26.115Z,99426.80
2017-12-08T02:18:32.289Z,99425.25
2017-12-08T02:19:37.688Z,99424.80
2017-12-08T02:20:42.879Z,99430.31
2017-12-08T02:21:49.378Z,99427.38
2017-12-08T02:22:54.921Z,99420.59
2017-12-08T02:24:00.680Z,99424.03
2017-12-08T02:25:06.476Z,99425.97
2017-12-08T02:26:11.896Z,99418.31
2017-12-08T02:27:17.285Z,99414.24
2017-12-08T02:28:22.550Z,99414.35
2017-12-08T02:29:28.023Z,99413.68
2017-12-08T02:30:33.439Z,99412.17
2017-12-08T02:31:38.896Z,99412.35
2017-12-08T02:32:44.286Z,99406.19
2017-12-08T02:33:50.919Z,99409.88
2017-12-08T02:34:57.002Z,99404.80
2017-12-08T02:36:02.878Z,99406.77
2017-12-08T02:37:08.959Z,99410.46
2017-12-08T02:38:15.019Z,99409.70
2017-12-08T02:39:21.211Z,99415.04
2017-12-08T02:40:27.400Z,99414.03
2017-12-08T02:41:33.511Z,99409.59
2017-12-08T02:42:42.768Z,99410.59
2017-12-08T02:43:49.749Z,99412.50
2017-12-08T02:44:55.878Z,99414.77
2017-12-08T02:46:02.006Z,99414.65
2017-12-08T02:47:07.908Z,99415.83
2017-12-08T02:48:13.852Z,99422.14
2017-12-08T02:49:20.045Z,99417.80
2017-12-08T02:50:25.876Z,99419.71
2017-12-08T02:51:31.579Z,99419.00
2017-12-08T02:52:37.826Z,99416.05
2017-12-08T02:53:43.596Z,99411.60
2017-12-08T02:54:49.942Z,99410.61
2017-12-08T02:55:56.005Z,99407.22
2017-12-08T02:57:01.718Z,99408.27
2017-12-08T02:58:07.839Z,99404.07
2017-12-08T02:59:13.968Z,99394.49
2017-12-08T03:00:19.604Z,99394.17
2017-12-08T03:01:25.070Z,99393.14
2017-12-08T03:02:30.982Z,99396.25
2017-12-08T03:03:37.066Z,99399.17
2017-12-08T03:04:42.976Z,99406.99
2017-12-08T03:05:49.923Z,99398.84
2017-12-08T03:06:56.030Z,99401.47
2017-12-08T03:08:02.143Z,99406.69
2017-12-08T03:09:08.282Z,99406.03
2017-12-08T03:10:14.479Z,99401.41
2017-12-08T03:11:20.362Z,99398.59
2017-12-08T03:12:29.824Z,99408.83
2017-12-08T03:13:36.004Z,99406.11
2017-12-08T03:14:42.250Z,99407.81
2017-12-08T03:15:48.022Z,99405.52
2017-12-08T03:16:54.163Z,99408.00
2017-12-08T03:18:00.277Z,99412.91
2017-12-08T03:19:06.394Z,99412.59
2017-12-08T03:20:12.500Z,99413.52
2017-12-08T03:21:17.890Z,99418.44
2017-12-08T03:22:24.180Z,99420.27
2017-12-08T03:23:30.251Z,99425.01
2017-12-08T03:24:36.351Z,99423.17
2017-12-08T03:25:42.461Z,99422.98
2017-12-08T03:26:48.564Z,99425.11
2017-12-08T03:27:54.751Z,99428.43
2017-12-08T03:29:00.846Z,99433.59
2017-12-08T03:30:06.923Z,99432.83
2017-12-08T03:31:12.958Z,99433.83
2017-12-08T03:32:19.061Z,99440.12
2017-12-08T03:33:25.155Z,99440.80
2017-12-08T03:34:31.198Z,99441.47
2017-12-08T03:35:37.283Z,99441.82
2017-12-08T03:36:42.972Z,99438.66
2017-12-08T03:37:48.629Z,99446.45
2017-12-08T03:38:54.733Z,99452.28
2017-12-08T03:40:00.868Z,99457.76
2017-12-08T03:41:06.267Z,99446.59
2017-12-08T03:42:11.794Z,99442.35
2017-12-08T03:43:18.555Z,99434.53
2017-12-08T03:44:24.604Z,99435.89
2017-12-08T03:45:30.709Z,99439.72
2017-12-08T03:46:37.568Z,99439.53
2017-12-08T03:47:44.459Z,99439.53
2017-12-08T03:48:50.578Z,99439.94
2017-12-08T03:49:56.389Z,99441.11
2017-12-08T03:51:02.514Z,99440.02
2017-12-08T03:52:08.689Z,99443.77
2017-12-08T03:53:14.842Z,99445.39
2017-12-08T03:54:20.950Z,99441.88
2017-12-08T03:55:27.042Z,99433.58
2017-12-08T03:56:33.127Z,99436.34
2017-12-08T03:57:39.206Z,99431.27
2017-12-08T03:58:45.282Z,99427.72
2017-12-08T03:59:51.402Z,99431.83
2017-12-08T04:00:57.119Z,99424.83
2017-12-08T04:02:03.284Z,99423.36
2017-12-08T04:03:09.506Z,99425.12
2017-12-08T04:04:15.634Z,99432.06
2017-12-08T04:05:21.864Z,99429.70
2017-12-08T04:06:27.944Z,99427.27
2017-12-08T04:07:34.030Z,99437.50
2017-12-08T04:08:40.103Z,99436.31
2017-12-08T04:09:46.176Z,99438.41
2017-12-08T04:10:51.648Z,99443.55
2017-12-08T04:11:57.371Z,99432.12
2017-12-08T04:13:03.079Z,99429.09
2017-12-08T04:14:08.460Z,99430.41
2017-12-08T04:15:14.342Z,99437.09
2017-12-08T04:16:20.530Z,99433.62
2017-12-08T04:17:26.690Z,99431.77
2017-12-08T04:18:32.556Z,99431.42
2017-12-08T04:19:38.402Z,99431.59
2017-12-08T04:20:44.108Z,99429.75
2017-12-08T04:21:50.166Z,99434.96
2017-12-08T04:22:56.286Z,99430.81
2017-12-08T04:24:01.993Z,99431.61
2017-12-08T04:25:08.115Z,99433.92
2017-12-08T04:26:14.199Z,99439.69
2017-12-08T04:27:20.260Z,99439.05
2017-12-08T04:28:26.327Z,99443.19
2017-12-08T04:29:32.444Z,99440.08
2017-12-08T04:30:38.543Z,99437.39
2017-12-08T04:31:44.622Z,99445.02
2017-12-08T04:32:50.682Z,99442.42
2017-12-08T04:33:56.742Z,99442.31
2017-12-08T04:35:02.866Z,99439.53
2017-12-08T04:36:08.950Z,99438.14
2017-12-08T04:37:15.281Z,99438.12
2017-12-08T04:38:21.337Z,99440.70
2017-12-08T04:39:27.086Z,99439.82
2017-12-08T04:40:33.151Z,99439.39
2017-12-08T04:41:39.216Z,99436.55
2017-12-08T04:42:44.982Z,99444.27
2017-12-08T04:43:51.023Z,99444.36
2017-12-08T04:44:57.078Z,99444.63
2017-12-08T04:46:03.228Z,99441.55
2017-12-08T04:47:09.299Z,99429.72
2017-12-08T04:48:15.078Z,99433.47
2017-12-08T04:49:20.831Z,99435.65
2017-12-08T04:50:26.506Z,99433.50
2017-12-08T04:51:32.602Z,99427.86
2017-12-08T04:52:38.742Z,99433.77
2017-12-08T04:53:44.433Z,99445.15
2017-12-08T04:54:50.775Z,99450.22
2017-12-08T04:55:56.490Z,99448.55
2017-12-08T04:57:02.221Z,99445.96
2017-12-08T04:58:07.973Z,99452.11
2017-12-08T04:59:13.716Z,99460.84
2017-12-08T05:00:19.523Z,99451.70
2017-12-08T05:01:25.378Z,99454.16
2017-12-08T05:02:31.483Z,99459.28
2017-12-08T05:03:37.530Z,99459.37
2017-12-08T05:04:43.628Z,99462.69
2017-12-08T05:05:49.700Z,99461.08
2017-12-08T05:06:56.006Z,99462.39
2017-12-08T05:08:02.098Z,99465.27
2017-12-08T05:09:08.132Z,99471.83
2017-12-08T05:10:14.109Z,99466.02
2017-12-08T05:11:19.881Z,99468.36
2017-12-08T05:12:25.646Z,99467.29
2017-12-08T05:13:41.841Z,99471.99
2017-12-08T05:14:53.601Z,99480.02
2017-12-08T05:15:59.731Z,99472.77
2017-12-08T05:17:05.471Z,99482.23
2017-12-08T05:18:11.599Z,99478.02
2017-12-08T05:19:17.722Z,99471.42
2017-12-08T05:20:26.599Z,99471.78
2017-12-08T05:21:32.299Z,99475.11
2017-12-08T05:22:37.905Z,99474.69
2017-12-08T05:23:43.337Z,99479.20
2017-12-08T05:24:48.584Z,99478.02
2017-12-08T05:25:54.671Z,99478.98
2017-12-08T05:27:00.819Z,99472.47
2017-12-08T05:28:06.880Z,99479.98
2017-12-08T05:29:12.790Z,99484.68
2017-12-08T05:30:18.756Z,99488.27
2017-12-08T05:31:24.829Z,99483.53
2017-12-08T05:32:30.885Z,99482.41
2017-12-08T05:33:36.963Z,99477.97
2017-12-08T05:34:43.038Z,99480.86
2017-12-08T05:35:49.151Z,99477.05
2017-12-08T05:36:55.299Z,99476.02
2017-12-08T05:38:01.099Z,99477.42
2017-12-08T05:39:07.143Z,99475.55
2017-12-08T05:40:13.282Z,99473.84
2017-12-08T05:41:19.378Z,99478.57
2017-12-08T05:42:25.508Z,99478.72
2017-12-08T05:43:31.594Z,99476.92
2017-12-08T05:44:37.693Z,99479.14
2017-12-08T05:45:43.813Z,99482.14
2017-12-08T05:46:50.674Z,99475.00
2017-12-08T05:47:56.645Z,99484.48
2017-12-08T05:49:02.959Z,99492.73
2017-12-08T05:50:09.047Z,99483.42
2017-12-08T05:51:15.128Z,99491.38
2017-12-08T05:52:21.241Z,99487.61
2017-12-08T05:53:27.454Z,99485.60
2017-12-08T05:54:33.557Z,99485.79
2017-12-08T05:55:39.567Z,99487.07
2017-12-08T05:56:45.478Z,99487.88
2017-12-08T05:57:51.604Z,99487.78
2017-12-08T05:58:57.367Z,99491.58
2017-12-08T06:00:03.492Z,99492.39
2017-12-08T06:01:09.018Z,99501.05
2017-12-08T06:02:14.484Z,99499.11
2017-12-08T06:03:20.593Z,99499.19
2017-12-08T06:04:26.682Z,99489.03
2017-12-08T06:05:32.723Z,99494.05
2017-12-08T06:06:38.822Z,99497.92
2017-12-08T06:07:44.572Z,99492.17
2017-12-08T06:08:50.698Z,99503.91
2017-12-08T06:09:56.085Z,99496.33
2017-12-08T06:11:02.136Z,99498.23
2017-12-08T06:12:08.199Z,99497.20
2017-12-08T06:13:14.519Z,99495.30
2017-12-08T06:14:20.656Z,99502.03
2017-12-08T06:15:26.725Z,99496.80
2017-12-08T06:16:32.815Z,99500.94
2017-12-08T06:17:38.955Z,99505.55
2017-12-08T06:18:44.724Z,99498.64
2017-12-08T06:19:50.831Z,99496.48
2017-12-08T06:20:56.902Z,99497.59
2017-12-08T06:22:05.246Z,99491.80
2017-12-08T06:23:14.110Z,99494.88
2017-12-08T06:24:20.155Z,99490.95
2017-12-08T06:25:26.214Z,99492.52
2017-12-08T06:26:32.093Z,99484.48
2017-12-08T06:27:38.222Z,99483.36
2017-12-08T06:28:44.267Z,99480.11
2017-12-08T06:29:49.973Z,99481.13
2017-12-08T06:30:56.070Z,99478.78
2017-12-08T06:32:02.183Z,99475.31
2017-12-08T06:33:08.226Z,99482.80
2017-12-08T06:34:14.293Z,99485.16
2017-12-08T06:35:20.654Z,99482.34
2017-12-08T06:36:26.728Z,99488.00
2017-12-08T06:37:32.781Z,99488.95
2017-12-08T06:38:38.935Z,99490.93
2017-12-08T06:39:45.039Z,99497.86
2017-12-08T06:40:51.095Z,99491.19
2017-12-08T06:41:57.200Z,99498.78
2017-12-08T06:43:03.313Z,99501.15
2017-12-08T06:44:09.361Z,99499.81
2017-12-08T06:45:15.466Z,99504.55
2017-12-08T06:46:21.551Z,99505.67
2017-12-08T06:47:27.632Z,99508.05
2017-12-08T06:48:33.733Z,99504.72
2017-12-08T06:49:39.846Z,99508.62
2017-12-08T06:50:45.884Z,99508.30
2017-12-08T06:51:51.963Z,99509.55
2017-12-08T06:52:58.098Z,99509.75
2017-12-08T06:54:04.627Z,99506.03
2017-12-08T06:55:10.906Z,99510.09
2017-12-08T06:56:16.953Z,99506.69
2017-12-08T06:57:23.007Z,99502.40
2017-12-08T06:58:29.049Z,99502.23
2017-12-08T06:59:35.131Z,99513.84
2017-12-08T07:00:41.334Z,99503.03
2017-12-08T07:01:47.197Z,99509.05
2017-12-08T07:02:53.245Z,99506.27
2017-12-08T07:03:59.325Z,99511.28
2017-12-08T07:05:05.054Z,99512.89
2017-12-08T07:06:10.997Z,99515.84
2017-12-08T07:07:17.413Z,99517.48
2017-12-08T07:08:23.327Z,99523.78
2017-12-08T07:09:28.869Z,99524.75
2017-12-08T07:10:34.662Z,99534.80
2017-12-08T07:11:39.870Z,99530.85
2017-12-08T07:12:45.082Z,99532.78
2017-12-08T07:13:51.150Z,99529.52
2017-12-08T07:14:56.884Z,99525.48
2017-12-08T07:16:02.330Z,99529.11
2017-12-08T07:17:08.043Z,99531.81
2017-12-08T07:18:13.798Z,99535.53
2017-12-08T07:19:20.284Z,99534.16
2017-12-08T07:20:26.077Z,99536.69
2017-12-08T07:21:31.971Z,99539.88
2017-12-08T07:22:38.051Z,99534.88
2017-12-08T07:23:44.131Z,99533.77
2017-12-08T07:24:49.851Z,99532.11
2017-12-08T07:25:55.707Z,99533.92
2017-12-08T07:27:01.755Z,99527.88
2017-12-08T07:28:07.843Z,99533.44
2017-12-08T07:29:13.951Z,99535.05
2017-12-08T07:30:19.739Z,99527.55
2017-12-08T07:31:25.854Z,99521.80
2017-12-08T07:32:32.001Z,99530.30
2017-12-08T07:33:38.104Z,99522.81
2017-12-08T07:34:44.209Z,99528.65
2017-12-08T07:35:49.400Z,99529.41
2017-12-08T07:36:55.473Z,99525.20
2017-12-08T07:38:01.585Z,99526.27
2017-12-08T07:39:07.657Z,99526.08
2017-12-08T07:40:13.785Z,99528.16
2017-12-08T07:41:19.207Z,99529.47
2017-12-08T07:42:25.258Z,99539.83
2017-12-08T07:43:31.376Z,99536.52
2017-12-08T07:44:37.494Z,99539.20
2017-12-08T07:45:43.258Z,99545.41
2017-12-08T07:46:49.408Z,99543.36
2017-12-08T07:47:55.132Z,99548.45
2017-12-08T07:49:00.896Z,99547.47
2017-12-08T07:50:06.338Z,99548.19
2017-12-08T07:51:12.073Z,99544.98
2017-12-08T07:52:18.133Z,99549.20
2017-12-08T07:53:24.275Z,99549.13
2017-12-08T07:54:29.973Z,99552.30
2017-12-08T07:55:36.098Z,99549.13
2017-12-08T07:56:42.179Z,99544.30
2017-12-08T07:57:48.260Z,99543.97
2017-12-08T07:58:54.366Z,99545.88
2017-12-08T08:00:00.638Z,99551.33
2017-12-08T08:01:06.541Z,99548.22
2017-12-08T08:02:12.584Z,99550.81
2017-12-08T08:03:18.722Z,99551.33
2017-12-08T08:04:24.776Z,99545.79
2017-12-08T08:05:30.865Z,99544.17
2017-12-08T08:06:36.918Z,99548.12
2017-12-08T08:07:42.970Z,99543.14
2017-12-08T08:08:49.102Z,99552.79
2017-12-08T08:09:55.168Z,99549.25
2017-12-08T08:11:01.242Z,99545.77
2017-12-08T08:12:07.961Z,99547.42
2017-12-08T08:13:13.404Z,99546.94
2017-12-08T08:14:19.294Z,99549.28
2017-12-08T08:15:24.673Z,99545.98
2017-12-08T08:16:29.929Z,99557.07
2017-12-08T08:17:35.116Z,99555.89
2017-12-08T08:18:40.289Z,99558.91
2017-12-08T08:19:46.457Z,99559.33
2017-12-08T08:20:52.572Z,99558.92
2017-12-08T08:21:58.258Z,99570.10
2017-12-08T08:23:04.446Z,99566.42
2017-12-08T08:24:10.601Z,99574.97
2017-12-08T08:25:16.686Z,99567.21
2017-12-08T08:26:22.435Z,99577.45
2017-12-08T08:27:28.188Z,99579.94
2017-12-08T08:28:33.914Z,99578.34
2017-12-08T08:29:39.272Z,99581.92
2017-12-08T08:30:45.029Z,99579.41
2017-12-08T08:31:50.811Z,99579.81
2017-12-08T08:32:56.858Z,99579.95
2017-12-08T08:34:02.925Z,99577.09
2017-12-08T08:35:08.978Z,99580.53
2017-12-08T08:36:15.150Z,99581.56
2017-12-08T08:37:20.921Z,99584.52
2017-12-08T08:38:26.978Z,99584.70
2017-12-08T08:39:32.741Z,99582.14
2017-12-08T08:40:38.891Z,99575.23
2017-12-08T08:41:44.598Z,99578.97
2017-12-08T08:42:50.662Z,99574.05
2017-12-08T08:43:56.406Z,99581.59
2017-12-08T08:45:02.171Z,99578.11
2017-12-08T08:46:07.924Z,99576.73
2017-12-08T08:47:13.361Z,99578.28
2017-12-08T08:48:19.509Z,99579.69
2017-12-08T08:49:25.616Z,99581.70
2017-12-08T08:50:31.757Z,99578.54
2017-12-08T08:51:37.965Z,99577.66
2017-12-08T08:52:43.754Z,99583.30
2017-12-08T08:53:49.911Z,99586.51
2017-12-08T08:54:55.848Z,99592.02
2017-12-08T08:56:01.942Z,99601.56
2017-12-08T08:57:08.358Z,99608.16
2017-12-08T08:58:14.425Z,99608.52
2017-12-08T08:59:20.166Z,99608.03
2017-12-08T09:00:25.514Z,99613.81
2017-12-08T09:01:31.397Z,99614.80
2017-12-08T09:02:37.136Z,99616.25
2017-12-08T09:03:43.227Z,99608.58
2017-12-08T09:04:48.927Z,99615.02
2017-12-08T09:05:54.684Z,99610.35
2017-12-08T09:07:00.801Z,99614.83
2017-12-08T09:08:06.474Z,99612.44
2017-12-08T09:09:12.254Z,99615.64
2017-12-08T09:10:18.014Z,99615.89
2017-12-08T09:11:24.338Z,99624.42
2017-12-08T09:12:30.058Z,99624.19
2017-12-08T09:13:36.119Z,99622.91
2017-12-08T09:14:41.853Z,99622.86
2017-12-08T09:15:47.620Z,99628.14
2017-12-08T09:16:53.368Z,99625.81
2017-12-08T09:17:59.441Z,99627.73
2017-12-08T09:19:05.595Z,99634.23
2017-12-08T09:20:11.723Z,99627.28
2017-12-08T09:21:17.862Z,99629.53
2017-12-08T09:22:23.942Z,99626.23
2017-12-08T09:23:29.736Z,99628.37
2017-12-08T09:24:35.824Z,99622.41
2017-12-08T09:25:41.560Z,99623.95
2017-12-08T09:26:47.659Z,99632.00
2017-12-08T09:27:53.194Z,99624.63
2017-12-08T09:28:59.304Z,99626.34
2017-12-08T09:30:05.393Z,99628.73
2017-12-08T09:31:10.753Z,99631.06
2017-12-08T09:32:16.246Z,99630.25
2017-12-08T09:33:22.385Z,99638.50
2017-12-08T09:34:28.453Z,99633.41
2017-12-08T09:35:34.515Z,99640.44
2017-12-08T09:36:40.625Z,99639.69
2017-12-08T09:37:46.731Z,99637.69
2017-12-08T09:38:52.862Z,99647.09
2017-12-08T09:39:58.920Z,99644.55
2017-12-08T09:41:06.982Z,99652.55
2017-12-08T09:42:12.721Z,99645.44
2017-12-08T09:43:18.470Z,99627.79
2017-12-08T09:44:24.569Z,99641.71
2017-12-08T09:45:30.653Z,99632.23
2017-12-08T09:46:36.558Z,99640.45
2017-12-08T09:47:42.664Z,99637.52
2017-12-08T09:48:48.509Z,99643.73
2017-12-08T09:49:54.279Z,99639.31
2017-12-08T09:51:00.390Z,99638.45
2017-12-08T09:52:06.472Z,99637.66
2017-12-08T09:53:12.697Z,99649.06
2017-12-08T09:54:18.932Z,99644.03
2017-12-08T09:55:25.008Z,99641.62
2017-12-08T09:56:31.082Z,99641.97
2017-12-08T09:57:36.784Z,99637.84
2017-12-08T09:58:42.866Z,99637.80
2017-12-08T09:59:48.776Z,99640.36
2017-12-08T10:00:54.854Z,99635.36
2017-12-08T10:02:00.600Z,99640.43
2017-12-08T10:03:05.970Z,99636.17
2017-12-08T10:04:11.731Z,99636.72
2017-12-08T10:05:17.789Z,99637.98
2017-12-08T10:06:23.844Z,99632.05
2017-12-08T10:07:29.911Z,99633.52
2017-12-08T10:08:35.778Z,99631.49
2017-12-08T10:09:41.916Z,99631.09
2017-12-08T10:10:47.996Z,99627.34
2017-12-08T10:11:53.735Z,99622.75
2017-12-08T10:12:59.789Z,99626.98
2017-12-08T10:14:05.605Z,99624.96
2017-12-08T10:15:11.723Z,99623.23
2017-12-08T10:16:17.802Z,99626.11
2017-12-08T10:17:23.506Z,99620.66
2017-12-08T10:18:29.573Z,99619.94
2017-12-08T10:19:35.678Z,99619.70
2017-12-08T10:20:41.149Z,99614.95
2017-12-08T10:21:46.924Z,99616.66
2017-12-08T10:22:52.310Z,99618.31
2017-12-08T10:23:57.587Z,99619.70
2017-12-08T10:25:03.898Z,99616.58
2017-12-08T10:26:09.977Z,99617.73
2017-12-08T10:27:16.049Z,99617.46
2017-12-08T10:28:22.106Z,99611.45
2017-12-08T10:29:27.895Z,99614.67
2017-12-08T10:30:33.252Z,99613.63
2017-12-08T10:31:39.348Z,99609.48
2017-12-08T10:32:49.789Z,99610.59
2017-12-08T10:33:55.953Z,99608.46
2017-12-08T10:35:02.292Z,99618.52
2017-12-08T10:36:08.404Z,99614.08
2017-12-08T10:37:14.281Z,99615.70
2017-12-08T10:38:20.028Z,99608.19
2017-12-08T10:39:25.798Z,99610.70
2017-12-08T10:40:31.929Z,99609.04
2017-12-08T10:41:38.074Z,99605.55
2017-12-08T10:42:44.153Z,99612.37
2017-12-08T10:43:50.240Z,99609.44
2017-12-08T10:44:56.370Z,99614.05
2017-12-08T10:46:02.455Z,99616.47
2017-12-08T10:47:08.218Z,99617.31
2017-12-08T10:48:14.334Z,99608.33
2017-12-08T10:49:20.380Z,99600.89
2017-12-08T10:50:28.355Z,99615.11
2017-12-08T10:51:34.147Z,99611.32
2017-12-08T10:52:40.228Z,99595.20
2017-12-08T10:53:46.931Z,99607.53
2017-12-08T10:54:52.883Z,99599.89
2017-12-08T10:55:58.925Z,99597.79
2017-12-08T10:57:05.007Z,99591.84
2017-12-08T10:58:10.778Z,99598.01
2017-12-08T10:59:16.885Z,99593.34
2017-12-08T11:00:22.750Z,99597.59
2017-12-08T11:01:28.631Z,99599.56
2017-12-08T11:02:34.791Z,99591.64
2017-12-08T11:03:40.867Z,99587.30
2017-12-08T11:04:46.756Z,99582.80
2017-12-08T11:05:52.838Z,99586.58
2017-12-08T11:06:58.975Z,99583.19
2017-12-08T11:08:04.406Z,99580.59
2017-12-08T11:09:10.519Z,99581.81
2017-12-08T11:10:16.982Z,99583.22
2017-12-08T11:11:22.334Z,99576.51
2017-12-08T11:12:28.187Z,99580.45
2017-12-08T11:13:33.947Z,99589.83
2017-12-08T11:14:39.872Z,99576.39
2017-12-08T11:15:45.627Z,99576.25
2017-12-08T11:16:51.023Z,99584.70
2017-12-08T11:17:56.980Z,99576.88
2017-12-08T11:19:03.325Z,99583.41
2017-12-08T11:20:10.173Z,99587.41
2017-12-08T11:21:15.929Z,99574.16
2017-12-08T11:22:22.245Z,99587.66
2017-12-08T11:23:30.931Z,99576.91
2017-12-08T11:24:37.062Z,99570.07
2017-12-08T11:25:43.232Z,99576.26
2017-12-08T11:26:49.326Z,99579.13
2017-12-08T11:27:55.105Z,99577.76
2017-12-08T11:29:01.227Z,99583.45
2017-12-08T11:30:07.338Z,99583.45
2017-12-08T11:31:13.130Z,99577.16
2017-12-08T11:32:19.249Z,99575.73
2017-12-08T11:33:25.359Z,99573.66
2017-12-08T11:34:31.448Z,99576.26
2017-12-08T11:35:37.545Z,99569.84
2017-12-08T11:36:43.306Z,99571.53
2017-12-08T11:37:49.426Z,99576.14
2017-12-08T11:38:55.544Z,99581.64
2017-12-08T11:40:01.637Z,99572.24
2017-12-08T11:41:07.378Z,99579.81
2017-12-08T11:42:13.447Z,99571.78
2017-12-08T11:43:19.598Z,99574.45
2017-12-08T11:44:25.643Z,99568.04
2017-12-08T11:45:31.769Z,99573.98
2017-12-08T11:46:37.862Z,99566.80
2017-12-08T11:47:44.000Z,99569.11
2017-12-08T11:48:50.069Z,99562.88
2017-12-08T11:49:56.130Z,99563.78
2017-12-08T11:51:02.280Z,99565.50
2017-12-08T11:52:08.408Z,99560.13
2017-12-08T11:53:14.497Z,99564.25
2017-12-08T11:54:20.618Z,99561.52
2017-12-08T11:55:26.729Z,99560.62
2017-12-08T11:56:32.894Z,99560.34
2017-12-08T11:57:38.976Z,99554.85
2017-12-08T11:58:45.090Z,99554.53
2017-12-08T11:59:53.002Z,99555.81
2017-12-08T12:00:59.149Z,99559.03
2017-12-08T12:02:05.035Z,99564.41
2017-12-08T12:03:11.433Z,99546.17
2017-12-08T12:04:17.548Z,99559.03
2017-12-08T12:05:23.662Z,99564.02
2017-12-08T12:06:29.440Z,99559.33
2017-12-08T12:07:35.564Z,99563.42
2017-12-08T12:08:41.691Z,99571.39
2017-12-08T12:09:47.786Z,99559.19
2017-12-08T12:10:53.856Z,99563.88
2017-12-08T12:11:59.954Z,99563.41
2017-12-08T12:13:06.063Z,99566.60
2017-12-08T12:14:12.167Z,99564.03
2017-12-08T12:15:18.265Z,99562.21
2017-12-08T12:16:24.409Z,99557.77
2017-12-08T12:17:30.617Z,99562.17
2017-12-08T12:18:36.841Z,99562.91
2017-12-08T12:19:42.657Z,99565.87
2017-12-08T12:20:54.157Z,99560.38
2017-12-08T12:22:00.336Z,99555.00
2017-12-08T12:23:06.518Z,99548.88
2017-12-08T12:24:12.621Z,99546.70
2017-12-08T12:25:18.712Z,99544.83
2017-12-08T12:26:24.897Z,99549.77
2017-12-08T12:27:31.027Z,99541.31
2017-12-08T12:28:37.208Z,99547.93
2017-12-08T12:29:43.315Z,99545.80
2017-12-08T12:30:49.529Z,99544.81
2017-12-08T12:32:00.495Z,99541.28
2017-12-08T12:33:06.690Z,99539.80
2017-12-08T12:34:12.947Z,99536.45
2017-12-08T12:35:19.079Z,99541.59
2017-12-08T12:36:25.256Z,99537.35
2017-12-08T12:37:31.520Z,99538.64
2017-12-08T12:38:37.639Z,99540.62
2017-12-08T12:39:43.782Z,99543.82
2017-12-08T12:40:49.914Z,99538.66
2017-12-08T12:41:56.085Z,99549.88
2017-12-08T12:43:02.246Z,99541.16
2017-12-08T12:44:09.062Z,99542.41
2017-12-08T12:45:15.278Z,99541.16
2017-12-08T12:46:21.516Z,99537.07
2017-12-08T12:47:27.686Z,99538.41
2017-12-08T12:48:34.296Z,99545.08
2017-12-08T12:49:40.079Z,99543.16
2017-12-08T12:50:45.364Z,99528.83
2017-12-08T12:51:51.364Z,99536.84
2017-12-08T12:52:57.499Z,99538.10
2017-12-08T12:54:03.276Z,99529.86
2017-12-08T12:55:09.645Z,99528.80
2017-12-08T12:56:16.005Z,99528.72